Anawalt, West Virginia
Current Conditions -  °F | °C
As of 1:52 PM on Monday 20 Oct 2014 (Local Time) from KBLF Reporting Station
Clear Clear  
Wind Chill: 17°   Ceiling: Unl
Heat Index: 17°   Visibility: 10mi
Dew Point:   Wind: 12mph
Humidity: 45%   Direction: 250°WSW
Pressure: 30.01"   Gusts: 18mph
Location:  37.34°N, 81.44°W
Report Text: KBLF 201752Z AUTO 25010G16KT 10SM CLR 17/05 A3001 RMK AO2 SLP147 T01720050 10172 20056 58026
Loading
Personal Weather Stations






























Interactive Weather Map
Tropical Storm Tracking
New forecast layout! Learn more

10-Day Weather Forecast

Advertisements
Track Severe Weather on mobile